Time;durP1;ratioP1;P1;durP2;ratioP2;P2;SDS_P1;SDS_P2;PMS_P1;PMS_P2;Temp;Humidity;BMP_temperature;BMP_pressure;BME280_temperature;BME280_humidity;BME280_pressure;Samples;Min_cycle;Max_cycle;Signal;HPM_P1;HPM_P2
2023/10/12 00:01:59;;;;;;;1.87;1.70;;;16.70;99.90;;;;;;5075588;28;20418;-82
2023/10/12 00:04:35;;;;;;;5.33;1.70;;;16.70;99.90;;;;;;5075450;28;20469;-82
2023/10/12 00:07:10;;;;;;;2.87;2.10;;;16.70;99.90;;;;;;5075622;28;20443;-82
2023/10/12 00:09:38;;;;;;;1.50;1.20;;;16.60;99.90;;;;;;5075448;28;20424;-82
2023/10/12 00:12:08;;;;;;;4.90;1.40;;;16.70;99.90;;;;;;5075291;28;20445;-82
2023/10/12 00:14:36;;;;;;;2.77;1.87;;;16.70;99.90;;;;;;5075598;28;20429;-82
2023/10/12 00:17:05;;;;;;;6.83;1.77;;;16.70;99.90;;;;;;5075235;28;20455;-81
2023/10/12 00:19:32;;;;;;;3.03;1.10;;;16.70;99.90;;;;;;5075076;28;20487;-82
2023/10/12 00:22:00;;;;;;;3.10;2.20;;;17.00;99.90;;;;;;5074864;28;20957;-82
2023/10/12 00:24:27;;;;;;;2.10;1.10;;;16.70;99.90;;;;;;5074818;28;20982;-82
2023/10/12 00:26:57;;;;;;;7.60;1.50;;;16.70;99.90;;;;;;5075039;28;20441;-82
2023/10/12 00:29:24;;;;;;;4.70;1.10;;;16.70;99.90;;;;;;5074999;28;20433;-82
2023/10/12 00:31:52;;;;;;;4.83;1.93;;;16.70;99.90;;;;;;5075169;28;20440;-82
2023/10/12 00:34:23;;;;;;;3.97;1.50;;;16.70;99.90;;;;;;5074527;28;20982;-82
2023/10/12 00:36:53;;;;;;;2.63;1.20;;;16.70;99.90;;;;;;5074860;28;20434;-82
2023/10/12 00:39:27;;;;;;;1.73;1.63;;;16.70;99.90;;;;;;5074558;28;20516;-82
2023/10/12 00:41:56;;;;;;;3.33;1.10;;;16.70;99.90;;;;;;5075604;28;20464;-82
2023/10/12 00:44:26;;;;;;;1.83;1.10;;;16.70;99.90;;;;;;5074594;28;20473;-81
2023/10/12 00:47:07;;;;;;;3.70;1.63;;;16.70;99.90;;;;;;5074701;28;20433;-81
2023/10/12 00:49:37;;;;;;;2.87;1.53;;;16.70;99.90;;;;;;5074441;28;20432;-82
2023/10/12 00:52:14;;;;;;;9.33;1.73;;;16.80;99.90;;;;;;5074530;28;20542;-82
2023/10/12 00:54:49;;;;;;;1.37;1.10;;;16.80;99.90;;;;;;5074651;28;20520;-81
2023/10/12 00:57:17;;;;;;;3.57;1.73;;;16.80;99.90;;;;;;5074706;28;20436;-82
2023/10/12 00:59:46;;;;;;;3.47;1.07;;;16.80;99.90;;;;;;5074252;28;21001;-82
2023/10/12 01:02:15;;;;;;;3.10;1.63;;;16.80;99.90;;;;;;5074285;28;20445;-82
2023/10/12 01:04:43;;;;;;;3.57;1.50;;;16.80;99.90;;;;;;5074824;28;20502;-81
2023/10/12 01:07:19;;;;;;;3.50;2.40;;;16.80;99.90;;;;;;5073922;28;20449;-81
2023/10/12 01:09:47;;;;;;;2.60;1.10;;;16.80;99.90;;;;;;5074241;28;20429;-81
2023/10/12 01:12:14;;;;;;;2.23;1.20;;;16.80;99.90;;;;;;5074081;28;20452;-81
2023/10/12 01:14:44;;;;;;;3.73;1.73;;;16.70;99.90;;;;;;5074334;28;20441;-82
2023/10/12 01:17:16;;;;;;;3.53;1.73;;;16.80;99.90;;;;;;5074060;28;20531;-82
2023/10/12 01:19:46;;;;;;;2.33;1.70;;;16.70;99.90;;;;;;5074111;28;20473;-82
2023/10/12 01:22:15;;;;;;;1.20;1.10;;;16.70;99.90;;;;;;5073941;28;20433;-82
2023/10/12 01:24:47;;;;;;;2.57;1.67;;;16.60;99.90;;;;;;5073927;28;20476;-82
2023/10/12 01:27:14;;;;;;;3.00;1.30;;;16.60;99.90;;;;;;5073953;28;20832;-81
2023/10/12 01:29:42;;;;;;;3.57;1.80;;;16.50;99.90;;;;;;5073586;28;20440;-81
2023/10/12 01:34:52;;;;;;;6.07;1.40;;;16.40;99.90;;;;;;5071366;28;20516;-81
2023/10/12 01:37:25;;;;;;;1.73;1.13;;;16.40;99.90;;;;;;5073666;28;20444;-82
2023/10/12 01:40:12;;;;;;;2.03;1.03;;;16.40;99.90;;;;;;5073646;28;20492;-82
2023/10/12 01:42:49;;;;;;;2.20;1.57;;;16.40;99.90;;;;;;5073601;28;20465;-82
2023/10/12 01:45:18;;;;;;;2.23;1.70;;;16.40;99.90;;;;;;5073584;28;20935;-82
2023/10/12 01:47:50;;;;;;;1.97;1.50;;;16.40;99.90;;;;;;5073606;28;20456;-82
2023/10/12 01:50:17;;;;;;;4.23;1.70;;;16.30;99.90;;;;;;5072603;28;20494;-82
2023/10/12 01:52:47;;;;;;;6.83;2.07;;;16.40;99.90;;;;;;5073449;28;20475;-82
2023/10/12 01:55:18;;;;;;;2.63;1.53;;;16.30;99.90;;;;;;5073455;28;20472;-82
2023/10/12 01:57:52;;;;;;;1.87;1.67;;;16.30;99.90;;;;;;5073510;28;20429;-82
2023/10/12 02:00:25;;;;;;;1.50;1.40;;;16.30;99.90;;;;;;5073427;28;20499;-82
2023/10/12 02:03:01;;;;;;;2.80;1.40;;;16.30;99.90;;;;;;5073056;28;20977;-82
2023/10/12 02:05:37;;;;;;;4.03;2.70;;;16.30;99.90;;;;;;5073420;28;20775;-82
2023/10/12 02:08:06;;;;;;;1.53;1.43;;;16.30;99.90;;;;;;5073399;28;20425;-82
2023/10/12 02:10:42;;;;;;;3.87;2.00;;;16.30;99.90;;;;;;5073568;28;20441;-81
2023/10/12 02:13:10;;;;;;;2.40;1.50;;;16.40;99.90;;;;;;5073422;28;20543;-82
2023/10/12 02:15:38;;;;;;;3.80;1.80;;;16.40;99.90;;;;;;5073293;28;20578;-82
2023/10/12 02:18:11;;;;;;;2.97;1.57;;;16.50;99.90;;;;;;5073340;28;20445;-82
2023/10/12 02:20:48;;;;;;;2.20;1.67;;;16.50;99.90;;;;;;5073169;28;20471;-82
2023/10/12 02:23:16;;;;;;;1.93;1.30;;;16.50;99.90;;;;;;5072875;28;20475;-82
2023/10/12 02:25:50;;;;;;;4.07;1.30;;;16.40;99.90;;;;;;5072864;28;20860;-82
2023/10/12 02:28:22;;;;;;;2.17;1.60;;;16.40;99.90;;;;;;5073140;28;20426;-82
2023/10/12 02:30:53;;;;;;;1.80;1.47;;;16.40;99.90;;;;;;5072822;28;20876;-82
2023/10/12 02:33:24;;;;;;;5.80;3.40;;;16.60;99.90;;;;;;5073205;28;20484;-82
2023/10/12 02:35:51;;;;;;;4.10;1.17;;;16.60;99.90;;;;;;5072761;28;20429;-82
2023/10/12 02:38:21;;;;;;;3.47;1.50;;;16.60;99.90;;;;;;5073019;28;20448;-82
2023/10/12 02:40:56;;;;;;;17.73;2.07;;;16.70;99.90;;;;;;5073936;28;20479;-81
2023/10/12 02:43:27;;;;;;;2.83;1.40;;;16.70;99.90;;;;;;5073862;28;20892;-81
2023/10/12 02:45:58;;;;;;;4.03;1.33;;;16.80;99.90;;;;;;5072654;28;20425;-82
2023/10/12 02:48:29;;;;;;;1.70;1.20;;;16.90;99.90;;;;;;5073050;28;20429;-82
2023/10/12 02:50:58;;;;;;;1.53;1.43;;;16.90;99.90;;;;;;5072553;28;20480;-82
2023/10/12 02:53:29;;;;;;;2.20;1.30;;;16.90;99.90;;;;;;5072782;28;20476;-82
2023/10/12 02:55:59;;;;;;;1.73;1.40;;;17.00;99.90;;;;;;5072894;28;20433;-82
2023/10/12 02:58:27;;;;;;;4.40;1.53;;;17.00;99.90;;;;;;5072735;28;20457;-82
2023/10/12 03:00:57;;;;;;;5.67;1.47;;;17.10;99.90;;;;;;5072770;28;20484;-82
2023/10/12 03:03:27;;;;;;;4.47;1.93;;;17.10;99.90;;;;;;5076354;28;20973;-81
2023/10/12 03:05:58;;;;;;;4.80;1.20;;;17.20;99.90;;;;;;5076325;28;20457;-81
2023/10/12 03:08:31;;;;;;;2.63;1.83;;;17.20;99.90;;;;;;5076592;28;20425;-82
2023/10/12 03:11:12;;;;;;;1.73;1.10;;;17.30;99.90;;;;;;5077137;28;20433;-81
2023/10/12 03:13:42;;;;;;;2.20;1.90;;;17.30;99.90;;;;;;5076412;28;20543;-82
2023/10/12 03:16:13;;;;;;;1.97;1.43;;;17.40;99.90;;;;;;5076745;28;20452;-81
2023/10/12 03:18:40;;;;;;;1.97;1.47;;;17.40;99.90;;;;;;5076482;28;20459;-81
2023/10/12 03:21:12;;;;;;;16.57;2.50;;;17.40;99.90;;;;;;5076254;28;20489;-81
2023/10/12 03:23:41;;;;;;;2.80;2.20;;;17.40;99.90;;;;;;5076266;28;20824;-81
2023/10/12 03:26:20;;;;;;;1.30;1.20;;;17.50;99.90;;;;;;5075899;28;20973;-81
2023/10/12 03:28:50;;;;;;;3.00;1.50;;;17.50;99.90;;;;;;5076230;28;20425;-81
2023/10/12 03:31:22;;;;;;;3.13;1.60;;;17.50;99.90;;;;;;5075819;28;20445;-81
2023/10/12 03:33:54;;;;;;;2.20;1.40;;;17.50;99.90;;;;;;5076075;28;20468;-82
2023/10/12 03:36:23;;;;;;;5.03;1.33;;;17.50;99.90;;;;;;5076054;28;20460;-81
2023/10/12 03:42:09;;;;;;;5.90;1.90;;;17.50;99.90;;;;;;5075959;28;20463;-82
2023/10/12 03:44:48;;;;;;;2.80;1.80;;;17.50;99.90;;;;;;5076471;28;20433;-81
2023/10/12 03:47:16;;;;;;;2.10;1.83;;;17.50;99.90;;;;;;5076076;28;20433;-81
2023/10/12 03:49:57;;;;;;;4.67;1.53;;;17.50;99.90;;;;;;5075528;28;20815;-81
2023/10/12 03:52:29;;;;;;;1.40;1.30;;;17.50;99.90;;;;;;5075699;28;20456;-81
2023/10/12 03:55:16;;;;;;;2.97;2.03;;;17.50;99.90;;;;;;5075439;28;20429;-81
2023/10/12 03:57:45;;;;;;;4.73;1.50;;;17.40;99.90;;;;;;5075642;28;20429;-81
2023/10/12 04:00:32;;;;;;;2.77;1.60;;;17.40;99.90;;;;;;5075484;28;20522;-81
2023/10/12 04:03:03;;;;;;;2.03;1.13;;;17.40;99.90;;;;;;5075232;28;20510;-81
2023/10/12 04:05:46;;;;;;;4.20;1.77;;;17.40;99.90;;;;;;5075780;28;20972;-82
2023/10/12 04:08:39;;;;;;;3.60;1.37;;;17.30;99.90;;;;;;5075503;28;20921;-81
2023/10/12 04:14:20;;;;;;;1.70;1.50;;;17.20;99.90;;;;;;5073953;28;20464;-81
2023/10/12 04:16:56;;;;;;;4.67;2.17;;;17.20;99.90;;;;;;5075300;28;20452;-81
2023/10/12 04:19:31;;;;;;;1.93;1.57;;;17.20;99.90;;;;;;5074970;28;20922;-81
2023/10/12 04:22:05;;;;;;;2.77;1.53;;;17.10;99.90;;;;;;5075125;28;20464;-81
2023/10/12 04:24:42;;;;;;;2.20;1.40;;;17.10;99.90;;;;;;5075350;28;20429;-81
2023/10/12 04:27:38;;;;;;;2.33;1.20;;;17.00;99.90;;;;;;5075181;28;20513;-81
2023/10/12 04:30:19;;;;;;;4.20;1.57;;;17.00;99.90;;;;;;5075094;28;20429;-81
2023/10/12 04:33:11;;;;;;;2.33;1.50;;;17.00;99.90;;;;;;5074959;28;20461;-81
2023/10/12 04:36:09;;;;;;;2.60;1.37;;;17.20;99.90;;;;;;5075174;28;20444;-81
2023/10/12 04:38:46;;;;;;;1.60;1.30;;;16.90;99.90;;;;;;5074916;28;20438;-81
2023/10/12 04:41:37;;;;;;;1.20;1.10;;;16.90;99.90;;;;;;5074739;28;20473;-81
2023/10/12 04:46:51;;;;;;;2.63;1.73;;;16.90;99.90;;;;;;5074489;28;20404;-81
2023/10/12 04:52:15;;;;;;;2.50;1.60;;;16.90;99.90;;;;;;5074488;28;20408;-81
2023/10/12 04:54:59;;;;;;;2.27;1.70;;;16.90;99.90;;;;;;5074575;28;20775;-81
2023/10/12 04:57:27;;;;;;;6.00;2.10;;;16.70;99.90;;;;;;5074773;28;20902;-81
2023/10/12 05:00:07;;;;;;;5.30;2.00;;;16.80;99.90;;;;;;5074564;28;20539;-81
2023/10/12 05:02:43;;;;;;;2.93;1.60;;;16.90;99.90;;;;;;5073988;28;20534;-81
2023/10/12 05:05:54;;;;;;;3.73;1.73;;;16.90;99.90;;;;;;5074029;28;20429;-81
2023/10/12 05:08:03;;;;;;;1.67;1.10;;;16.80;99.90;;;;;;5073849;28;20530;-81
2023/10/12 05:10:46;;;;;;;2.77;1.20;;;16.80;99.90;;;;;;5074253;28;20793;-81
2023/10/12 05:13:19;;;;;;;2.83;1.40;;;16.90;99.90;;;;;;5074077;28;20468;-81
2023/10/12 05:15:54;;;;;;;1.30;1.20;;;16.80;99.90;;;;;;5073827;28;20898;-81
2023/10/12 05:18:23;;;;;;;2.23;1.30;;;16.90;99.90;;;;;;5073792;28;21044;-81
2023/10/12 05:20:49;;;;;;;3.27;1.20;;;16.90;99.90;;;;;;5073992;28;20484;-81
2023/10/12 05:23:17;;;;;;;1.77;1.57;;;16.90;99.90;;;;;;5073901;28;20488;-81
2023/10/12 05:25:53;;;;;;;5.97;1.50;;;16.90;99.90;;;;;;5073581;28;20868;-81
2023/10/12 05:28:21;;;;;;;3.10;2.10;;;16.90;99.90;;;;;;5073948;28;20444;-81
2023/10/12 05:30:51;;;;;;;1.57;1.40;;;16.90;99.90;;;;;;5073868;28;20452;-81
2023/10/12 05:33:38;;;;;;;3.00;1.40;;;16.90;99.90;;;;;;5073735;28;20566;-81
2023/10/12 05:36:08;;;;;;;2.80;1.40;;;16.90;99.90;;;;;;5073470;28;20902;-81
2023/10/12 05:38:36;;;;;;;1.50;1.17;;;16.90;99.90;;;;;;5073763;28;20431;-81
2023/10/12 05:41:04;;;;;;;14.77;2.60;;;17.00;99.90;;;;;;5073605;28;20484;-81
2023/10/12 05:43:33;;;;;;;1.47;1.37;;;17.00;99.90;;;;;;5073561;28;20508;-81
2023/10/12 05:46:04;;;;;;;3.07;1.53;;;17.10;99.90;;;;;;5073636;28;20451;-81
2023/10/12 05:48:33;;;;;;;1.53;1.30;;;17.10;99.90;;;;;;5073623;28;20425;-81
2023/10/12 05:51:00;;;;;;;1.30;1.20;;;17.10;99.90;;;;;;5073218;28;20481;-81
2023/10/12 05:53:28;;;;;;;2.50;1.83;;;17.10;99.90;;;;;;5073545;28;20994;-81
2023/10/12 05:55:57;;;;;;;5.60;2.83;;;17.30;99.90;;;;;;5073322;28;21013;-81
2023/10/12 05:58:24;;;;;;;3.00;1.23;;;17.20;99.90;;;;;;5073464;28;20502;-81
2023/10/12 06:00:52;;;;;;;2.63;1.47;;;17.20;99.90;;;;;;5073323;28;20487;-81
2023/10/12 06:03:21;;;;;;;2.23;2.03;;;17.20;99.90;;;;;;5073314;28;20479;-81
2023/10/12 06:05:48;;;;;;;2.87;1.60;;;17.30;99.90;;;;;;5073395;28;20448;-81
2023/10/12 06:08:19;;;;;;;2.23;1.40;;;17.30;99.90;;;;;;5073336;28;20441;-81
2023/10/12 06:10:46;;;;;;;3.60;1.30;;;17.30;99.90;;;;;;5073460;28;20429;-81
2023/10/12 06:13:15;;;;;;;4.77;1.50;;;17.40;99.90;;;;;;5073173;28;20461;-80
2023/10/12 06:15:49;;;;;;;1.40;1.30;;;17.40;99.90;;;;;;5073296;28;20470;-81
2023/10/12 06:18:21;;;;;;;1.70;1.50;;;17.50;99.90;;;;;;5073498;28;20433;-81
2023/10/12 06:20:58;;;;;;;2.27;2.07;;;17.50;99.90;;;;;;5072839;28;20452;-81
2023/10/12 06:23:24;;;;;;;2.80;1.43;;;17.50;99.90;;;;;;5073102;28;20496;-82
2023/10/12 06:25:51;;;;;;;4.60;2.13;;;17.60;99.90;;;;;;5073136;28;20445;-82
2023/10/12 06:28:18;;;;;;;2.70;1.33;;;17.60;99.90;;;;;;5073130;28;20452;-81
2023/10/12 06:30:45;;;;;;;5.67;1.87;;;17.70;99.90;;;;;;5072826;28;20814;-81
2023/10/12 06:33:14;;;;;;;1.80;1.10;;;17.80;99.90;;;;;;5072701;28;20995;-80
2023/10/12 06:35:58;;;;;;;4.67;2.10;;;17.90;99.90;;;;;;5073063;28;20437;-80
2023/10/12 06:38:37;;;;;;;1.67;1.30;;;18.00;99.90;;;;;;5077124;28;20454;-80
2023/10/12 06:43:58;;;;;;;1.37;1.20;;;18.00;99.90;;;;;;5076391;28;20456;-80
2023/10/12 06:46:27;;;;;;;4.43;2.03;;;18.00;99.90;;;;;;5076907;28;20478;-80
2023/10/12 06:49:00;;;;;;;3.93;1.90;;;18.00;99.90;;;;;;5076772;28;20444;-80
2023/10/12 06:51:28;;;;;;;2.40;1.57;;;18.00;99.90;;;;;;5076674;28;20469;-80
2023/10/12 06:54:17;;;;;;;3.03;1.77;;;18.10;99.90;;;;;;5076552;28;20461;-80
2023/10/12 06:56:49;;;;;;;2.40;1.37;;;18.10;99.90;;;;;;5076634;28;20441;-80
2023/10/12 06:59:27;;;;;;;1.77;1.50;;;18.10;99.90;;;;;;5076824;28;20433;-81
2023/10/12 07:02:09;;;;;;;2.80;1.70;;;18.10;99.90;;;;;;5076352;28;20839;-80
2023/10/12 07:04:37;;;;;;;7.63;1.70;;;18.20;99.90;;;;;;5076716;28;20460;-81
2023/10/12 07:07:07;;;;;;;2.47;1.40;;;18.10;99.90;;;;;;5076574;28;20448;-81
2023/10/12 07:09:39;;;;;;;3.23;1.33;;;18.20;99.90;;;;;;5076214;28;20452;-80
2023/10/12 07:12:08;;;;;;;4.73;1.93;;;18.20;99.90;;;;;;5076456;28;20886;-80
2023/10/12 07:14:38;;;;;;;4.93;1.97;;;18.20;99.90;;;;;;5076136;28;20448;-80
2023/10/12 07:17:07;;;;;;;2.60;1.40;;;18.20;99.90;;;;;;5076569;28;20463;-80
2023/10/12 07:19:34;;;;;;;2.07;1.87;;;18.20;99.90;;;;;;5076251;28;20468;-80
2023/10/12 07:22:07;;;;;;;4.30;1.83;;;18.20;99.90;;;;;;5076212;28;20534;-80
2023/10/12 07:24:38;;;;;;;1.73;1.43;;;18.20;99.90;;;;;;5076337;28;20435;-80
2023/10/12 07:27:11;;;;;;;1.93;1.37;;;18.30;99.90;;;;;;5076347;28;20429;-80
2023/10/12 07:29:44;;;;;;;4.90;1.73;;;18.20;99.90;;;;;;5076547;28;20510;-81
2023/10/12 07:32:19;;;;;;;1.90;1.50;;;18.20;99.90;;;;;;5076062;28;20429;-80
2023/10/12 07:34:52;;;;;;;3.07;1.57;;;18.20;99.90;;;;;;5076275;28;20512;-80
2023/10/12 07:37:19;;;;;;;3.83;1.50;;;18.20;99.90;;;;;;5076130;28;20425;-80
2023/10/12 07:39:50;;;;;;;2.33;1.40;;;18.20;99.90;;;;;;5075967;28;20460;-81
2023/10/12 07:42:25;;;;;;;2.40;1.47;;;18.20;99.90;;;;;;5075842;28;20472;-80
2023/10/12 07:44:55;;;;;;;2.20;1.70;;;18.20;99.90;;;;;;5075885;28;20487;-80
2023/10/12 07:47:31;;;;;;;2.30;1.70;;;18.20;99.90;;;;;;5075377;28;20707;-80
2023/10/12 07:50:07;;;;;;;1.47;1.33;;;18.20;99.90;;;;;;5075019;28;20575;-81
2023/10/12 07:52:40;;;;;;;3.37;1.60;;;18.20;99.90;;;;;;5075899;28;20465;-79
2023/10/12 07:55:12;;;;;;;3.57;1.53;;;18.30;99.90;;;;;;5075648;28;20930;-79
2023/10/12 07:57:39;;;;;;;5.63;1.83;;;18.20;99.90;;;;;;5075388;28;20855;-79
2023/10/12 08:00:33;;;;;;;2.37;1.40;;;18.20;99.90;;;;;;5075389;28;20954;-79
2023/10/12 08:03:05;;;;;;;3.13;1.73;;;18.20;99.90;;;;;;5075528;28;20613;-79
2023/10/12 08:05:56;;;;;;;2.97;2.00;;;18.20;99.90;;;;;;5076135;28;20444;-79
2023/10/12 08:08:37;;;;;;;3.40;1.50;;;18.20;99.90;;;;;;5075760;28;20429;-79
2023/10/12 08:11:27;;;;;;;4.07;1.53;;;18.20;99.90;;;;;;5075637;28;20437;-79
2023/10/12 08:13:56;;;;;;;2.80;1.23;;;18.20;99.90;;;;;;5075345;28;20492;-79
2023/10/12 08:16:28;;;;;;;1.67;1.40;;;18.10;99.90;;;;;;5075345;28;20444;-80
2023/10/12 08:21:41;;;;;;;3.00;1.50;;;18.10;99.90;;;;;;5074931;28;20519;-79
2023/10/12 08:24:14;;;;;;;2.00;1.40;;;18.10;99.90;;;;;;5074716;28;20969;-80
2023/10/12 08:26:50;;;;;;;3.60;1.70;;;18.10;99.90;;;;;;5075101;28;20429;-79
2023/10/12 08:29:57;;;;;;;2.07;1.87;;;18.10;99.90;;;;;;5075257;28;20910;-79
2023/10/12 08:32:13;;;;;;;4.50;1.80;;;18.10;99.90;;;;;;5074461;28;20815;-80
2023/10/12 08:35:10;;;;;;;4.63;2.33;;;18.00;99.90;;;;;;5075118;28;20429;-79
2023/10/12 08:37:36;;;;;;;1.80;1.33;;;17.90;99.90;;;;;;5074552;28;20447;-79
2023/10/12 08:40:18;;;;;;;5.17;2.43;;;18.00;99.90;;;;;;5074550;28;20439;-80
2023/10/12 08:42:58;;;;;;;5.27;1.90;;;18.00;99.90;;;;;;5074672;28;20579;-79
2023/10/12 08:45:27;;;;;;;1.87;1.30;;;18.00;99.90;;;;;;5074767;28;20794;-80
2023/10/12 08:48:01;;;;;;;4.10;1.47;;;18.10;99.90;;;;;;5074662;28;20486;-79
2023/10/12 08:53:18;;;;;;;1.63;1.37;;;18.00;99.90;;;;;;5074823;28;20452;-80
2023/10/12 08:55:47;;;;;;;2.43;1.40;;;18.00;99.90;;;;;;5074173;28;20439;-80
2023/10/12 08:58:30;;;;;;;5.53;1.83;;;18.00;99.90;;;;;;5074460;28;20518;-79
2023/10/12 09:01:08;;;;;;;2.33;1.47;;;18.00;99.90;;;;;;5074142;28;20429;-79
2023/10/12 09:03:38;;;;;;;2.30;1.60;;;18.10;99.90;;;;;;5073927;28;20988;-79
2023/10/12 09:06:19;;;;;;;2.27;1.60;;;18.10;99.90;;;;;;5074038;28;20898;-79
2023/10/12 09:08:47;;;;;;;2.10;1.47;;;18.10;99.90;;;;;;5074273;28;20432;-79
2023/10/12 09:11:25;;;;;;;5.33;2.20;;;18.20;99.90;;;;;;5074209;28;20448;-80
2023/10/12 09:13:57;;;;;;;4.23;1.30;;;18.20;99.90;;;;;;5074248;28;20472;-79
2023/10/12 09:16:26;;;;;;;8.30;2.40;;;18.20;99.90;;;;;;5073869;28;20468;-80
2023/10/12 09:18:58;;;;;;;8.60;2.27;;;18.20;99.90;;;;;;5074323;28;20452;-79
2023/10/12 09:21:38;;;;;;;6.87;1.83;;;18.20;99.90;;;;;;5074298;28;20897;-81
2023/10/12 09:24:14;;;;;;;2.40;1.50;;;18.30;99.90;;;;;;5073974;28;20472;-81
2023/10/12 09:26:47;;;;;;;2.27;1.80;;;18.30;99.90;;;;;;5073685;28;20528;-81
2023/10/12 09:29:27;;;;;;;2.10;2.00;;;18.30;99.90;;;;;;5074026;28;20516;-80
2023/10/12 09:32:13;;;;;;;2.40;1.47;;;18.30;99.90;;;;;;5073555;28;20523;-81
2023/10/12 09:35:00;;;;;;;2.83;1.70;;;18.40;99.90;;;;;;5074053;28;20449;-81
2023/10/12 09:37:33;;;;;;;4.67;1.43;;;18.50;99.90;;;;;;5073493;28;20929;-81
2023/10/12 09:40:00;;;;;;;2.83;2.17;;;18.50;99.90;;;;;;5073777;28;20429;-81
2023/10/12 09:42:30;;;;;;;3.50;1.93;;;18.50;99.90;;;;;;5073201;28;20860;-82
2023/10/12 09:45:08;;;;;;;3.10;1.90;;;18.60;99.90;;;;;;5073663;28;20449;-81
2023/10/12 09:47:53;;;;;;;2.43;1.53;;;18.60;99.90;;;;;;5073607;28;20465;-80
2023/10/12 09:50:27;;;;;;;2.87;1.30;;;18.70;99.90;;;;;;5073251;28;21219;-80
2023/10/12 09:52:58;;;;;;;4.20;1.80;;;18.70;99.90;;;;;;5073491;28;20457;-80
2023/10/12 09:55:32;;;;;;;8.50;1.97;;;18.80;99.90;;;;;;5073512;28;20425;-80
2023/10/12 09:58:12;;;;;;;2.50;1.73;;;18.80;99.90;;;;;;5074381;28;20512;-80
2023/10/12 10:01:01;;;;;;;5.60;1.70;;;18.90;99.90;;;;;;5073751;28;20752;-80
2023/10/12 10:03:35;;;;;;;4.30;1.83;;;18.80;99.90;;;;;;5073444;28;20500;-81
2023/10/12 10:06:19;;;;;;;4.10;1.50;;;18.80;99.90;;;;;;5073420;28;20433;-80
2023/10/12 10:08:57;;;;;;;6.93;2.50;;;18.90;99.90;;;;;;5073073;28;20434;-81
2023/10/12 10:11:26;;;;;;;6.27;3.30;;;18.90;99.90;;;;;;5073377;28;20440;-81
2023/10/12 10:13:54;;;;;;;7.93;2.07;;;19.00;99.90;;;;;;5072891;28;20932;-80
2023/10/12 10:16:22;;;;;;;4.00;1.70;;;19.00;99.90;;;;;;5073306;28;20543;-80
2023/10/12 10:18:56;;;;;;;2.87;2.00;;;19.10;99.90;;;;;;5072961;28;21016;-81
2023/10/12 10:21:30;;;;;;;2.67;2.03;;;19.10;99.90;;;;;;5072951;28;20489;-80
2023/10/12 10:23:58;;;;;;;4.40;2.10;;;19.10;99.90;;;;;;5073271;28;20493;-80
2023/10/12 10:26:31;;;;;;;1.60;1.50;;;19.20;99.90;;;;;;5072880;28;20453;-81
2023/10/12 10:29:04;;;;;;;2.77;1.83;;;19.20;99.90;;;;;;5073215;28;20437;-80
2023/10/12 10:31:41;;;;;;;1.10;1.00;;;19.30;99.90;;;;;;5072910;28;20810;-81
2023/10/12 10:34:11;;;;;;;2.67;1.80;;;19.40;99.90;;;;;;5073124;28;20552;-80
2023/10/12 10:36:40;;;;;;;2.67;1.53;;;19.40;99.90;;;;;;5073206;28;20799;-80
2023/10/12 10:39:28;;;;;;;3.53;3.23;;;19.40;99.90;;;;;;5073051;28;20867;-81
2023/10/12 10:41:56;;;;;;;3.20;2.20;;;19.40;99.90;;;;;;5073256;28;20433;-80
2023/10/12 10:44:26;;;;;;;13.83;2.10;;;19.40;99.90;;;;;;5072654;28;20522;-81
2023/10/12 10:46:57;;;;;;;7.60;2.13;;;19.50;99.90;;;;;;5072685;28;20449;-80
2023/10/12 10:49:30;;;;;;;2.13;1.90;;;19.60;99.90;;;;;;5072675;28;20977;-81
2023/10/12 10:52:13;;;;;;;2.20;1.50;;;19.60;99.90;;;;;;5072985;28;20455;-81
2023/10/12 10:54:51;;;;;;;2.60;1.80;;;19.60;99.90;;;;;;5072683;28;20967;-80
2023/10/12 10:57:24;;;;;;;2.00;1.67;;;19.70;99.90;;;;;;5073140;28;20433;-80
2023/10/12 10:59:52;;;;;;;4.30;2.00;;;19.80;99.90;;;;;;5073227;28;20490;-79
2023/10/12 11:02:21;;;;;;;2.63;1.87;;;19.80;99.90;;;;;;5072495;28;20476;-80
2023/10/12 11:04:51;;;;;;;3.10;2.50;;;19.90;99.90;;;;;;5072533;28;20547;-79
2023/10/12 11:07:18;;;;;;;6.77;2.30;;;19.90;99.90;;;;;;5072938;28;20475;-80
2023/10/12 11:10:05;;;;;;;3.47;1.87;;;19.90;99.90;;;;;;5072465;28;20929;-80
2023/10/12 11:12:32;;;;;;;2.87;1.70;;;20.10;99.90;;;;;;5072718;28;20471;-79
2023/10/12 11:15:01;;;;;;;2.53;2.30;;;20.00;99.90;;;;;;5072721;28;20476;-80
2023/10/12 11:17:35;;;;;;;2.40;1.27;;;20.10;99.90;;;;;;5072374;28;20817;-80
2023/10/12 11:20:07;;;;;;;1.70;1.50;;;20.10;99.90;;;;;;5072834;28;20437;-79
2023/10/12 11:22:37;;;;;;;2.23;1.37;;;20.20;99.90;;;;;;5073426;28;20489;-79
2023/10/12 11:25:04;;;;;;;5.20;1.87;;;20.20;99.90;;;;;;5076551;28;20907;-79
2023/10/12 11:27:32;;;;;;;2.13;1.73;;;20.10;99.90;;;;;;5076208;28;20502;-79
2023/10/12 11:30:06;;;;;;;2.67;1.90;;;20.20;99.90;;;;;;5076188;28;20447;-81
2023/10/12 11:32:53;;;;;;;5.87;2.00;;;20.20;99.90;;;;;;5075885;28;21044;-80
2023/10/12 11:35:33;;;;;;;2.13;1.93;;;20.10;99.90;;;;;;5076257;28;20544;-81
2023/10/12 11:38:00;;;;;;;3.43;1.83;;;20.10;99.90;;;;;;5076139;28;20443;-81
2023/10/12 11:40:30;;;;;;;2.43;1.80;;;20.20;99.90;;;;;;5076049;28;20471;-81
2023/10/12 11:42:57;;;;;;;2.90;2.17;;;20.20;99.90;;;;;;5075869;28;20485;-81
2023/10/12 11:45:32;;;;;;;2.53;2.10;;;20.30;99.90;;;;;;5075587;28;20793;-81
2023/10/12 11:48:21;;;;;;;3.20;2.17;;;20.40;99.90;;;;;;5075637;28;20431;-81
2023/10/12 11:50:50;;;;;;;2.97;1.47;;;20.60;99.90;;;;;;5075539;28;20514;-81
2023/10/12 11:53:17;;;;;;;3.40;1.73;;;20.70;99.90;;;;;;5075379;28;20992;-81
2023/10/12 11:55:45;;;;;;;7.23;1.70;;;20.80;99.90;;;;;;5075450;28;20938;-81
2023/10/12 11:58:16;;;;;;;3.97;2.23;;;20.90;99.90;;;;;;5075849;28;20838;-81
2023/10/12 12:00:48;;;;;;;1.70;1.60;;;20.90;99.90;;;;;;5075770;28;20532;-80
2023/10/12 12:03:17;;;;;;;2.10;1.60;;;21.00;99.90;;;;;;5075698;28;20484;-77
2023/10/12 12:05:50;;;;;;;2.93;1.67;;;21.00;99.90;;;;;;5075773;28;20535;-81
2023/10/12 12:08:19;;;;;;;2.53;2.33;;;21.10;99.90;;;;;;5075249;28;20947;-83
2023/10/12 12:10:53;;;;;;;1.90;1.50;;;21.10;99.90;;;;;;5075244;28;20436;-81
2023/10/12 12:13:21;;;;;;;6.90;1.60;;;21.10;99.90;;;;;;5075419;28;20972;-79
2023/10/12 12:15:48;;;;;;;4.33;1.30;;;21.20;99.90;;;;;;5075096;28;20990;-80
2023/10/12 12:18:19;;;;;;;2.50;1.63;;;21.10;99.90;;;;;;5075576;28;20432;-80
2023/10/12 12:20:48;;;;;;;5.70;1.53;;;21.10;99.90;;;;;;5076019;28;20802;-80
2023/10/12 12:23:15;;;;;;;6.80;1.23;;;21.10;99.90;;;;;;5074727;28;20484;-80
2023/10/12 12:25:42;;;;;;;3.50;2.23;;;21.00;99.90;;;;;;5075233;28;20444;-80
2023/10/12 12:28:13;;;;;;;3.83;1.40;;;20.90;99.90;;;;;;5075131;28;20444;-80
2023/10/12 12:30:46;;;;;;;2.80;1.50;;;20.90;99.90;;;;;;5075104;28;20814;-80
2023/10/12 12:33:15;;;;;;;3.17;1.77;;;20.90;99.90;;;;;;5075141;28;20463;-80
2023/10/12 12:35:45;;;;;;;1.60;1.40;;;20.90;99.90;;;;;;5074524;28;20452;-80
2023/10/12 12:38:25;;;;;;;2.50;1.90;;;20.90;99.90;;;;;;5074932;28;20924;-80
2023/10/12 12:40:52;;;;;;;3.80;1.53;;;20.80;99.90;;;;;;5075450;28;20841;-80
2023/10/12 12:43:20;;;;;;;1.80;1.70;;;20.80;99.90;;;;;;5074873;28;20555;-80
2023/10/12 12:45:46;;;;;;;4.80;2.30;;;20.90;99.90;;;;;;5074451;28;21043;-80
2023/10/12 12:48:14;;;;;;;2.60;2.40;;;20.80;99.90;;;;;;5074737;28;20444;-80
2023/10/12 12:50:44;;;;;;;1.83;1.73;;;20.80;99.90;;;;;;5074382;28;20571;-80
2023/10/12 12:53:11;;;;;;;1.77;1.63;;;20.90;99.90;;;;;;5074511;28;20517;-80
2023/10/12 12:55:39;;;;;;;1.50;1.37;;;20.90;99.90;;;;;;5074354;28;20976;-80
2023/10/12 12:58:09;;;;;;;2.90;1.43;;;20.80;99.90;;;;;;5074213;28;20933;-80
2023/10/12 13:00:36;;;;;;;2.80;2.07;;;20.80;99.90;;;;;;5074445;28;20444;-80
2023/10/12 13:03:03;;;;;;;2.90;1.50;;;20.80;99.90;;;;;;5074223;28;20484;-80
2023/10/12 13:05:30;;;;;;;2.97;1.60;;;20.80;99.90;;;;;;5074048;28;20448;-80
2023/10/12 13:08:00;;;;;;;7.00;1.83;;;20.80;99.90;;;;;;5074040;28;20949;-80
2023/10/12 13:10:26;;;;;;;1.57;1.40;;;20.80;99.90;;;;;;5074002;28;20445;-80
2023/10/12 13:12:53;;;;;;;2.27;1.37;;;20.90;99.90;;;;;;5073882;28;20526;-80
2023/10/12 13:15:21;;;;;;;1.83;1.40;;;20.80;99.90;;;;;;5073887;28;20449;-80
2023/10/12 13:17:48;;;;;;;2.00;1.63;;;20.90;99.90;;;;;;5074116;28;20535;-79
2023/10/12 13:20:21;;;;;;;5.70;1.80;;;20.90;99.90;;;;;;5074135;28;20436;-80
2023/10/12 13:22:49;;;;;;;4.73;1.93;;;20.90;99.90;;;;;;5074432;28;20468;-80
2023/10/12 13:25:18;;;;;;;1.30;1.20;;;21.00;99.90;;;;;;5073634;28;20460;-80
2023/10/12 13:27:46;;;;;;;1.77;1.20;;;21.10;99.90;;;;;;5073942;28;20498;-80
2023/10/12 13:30:14;;;;;;;6.67;1.87;;;21.20;99.90;;;;;;5073739;28;20444;-81
2023/10/12 13:32:42;;;;;;;1.63;1.53;;;21.20;99.90;;;;;;5073767;28;20895;-79
2023/10/12 13:35:28;;;;;;;6.00;1.80;;;21.20;99.90;;;;;;5073547;28;20942;-80
2023/10/12 13:37:56;;;;;;;3.23;1.50;;;21.30;99.90;;;;;;5073506;28;20439;-82